You are here

Stations

Station Name Date Time Temperature Relative Humidity Precipitation Wind Speed Wind Direction Create Custom Report Daily Report Hourly Report
A&O Farm 2022-01-07 14:30 90.0 67.23 0.00 2.50 SE
Aberdeen VTcr 2022-01-07 14:30 93.8 51.24 0.00 0.10 SSE
Beaumont Exp Stn 2022-01-07 14:30 91.3 67.75 0.00 5.81 ENE
Bee Lake 2022-01-07 14:30 86.9 73.10 0.01 3.78 NW
Black Belt F22-23 VTc 2022-01-07 14:30 90.0 57.76 0.00 5.69 SE
Black Belt F24 VTso 2022-01-07 14:30 88.5 60.25 0.00 3.56 WSW
Brooksville 2022-01-07 14:30 88.6 58.88 0.00 5.37 SSW
Brooksville2 VTso 2022-01-07 14:30 86.3 65.57 0.00
Brown Loam Exp. Stn. 2022-01-07 14:30 90.6 49.44 0.00 4.51 SSE
Clarksdale VTso 2022-01-07 14:30 87.6 73.01 0.00
Cleveland 2022-01-07 14:30 89.1 61.40 0.00 3.91 SSW
Coastal Res & Ext Cnt 2022-01-07 14:30 88.0 71.53 0.00 4.93 SSW
COOP Stoneville 2022-30-06 8:00 789.0 85 0.00
Cooper Farm 2022-01-07 14:30 88.3 76.11 0.00 5.16 ENE
Crystal Sprgs Exp Stn 2022-01-07 14:30 88.7 64.59 0.00 4.37 SE
Crystal Springs VTso 2022-01-07 14:30 87.1 64.69 0.02 4.79 SSE
Holly Ridge 2022-01-07 14:30 88.1 66.73 0.00 2.27 SSE
Home Cypress Farm 2022-01-07 14:30 89.3 60.51 0.00 0.18 NNE
Lake Cormorant VTcr 2022-01-07 14:30 88.6 59.29 0.00 2.17 ESE
Lancaster 2022-01-07 14:30 89.2 61.15 0.00 2.28 NE
Longwood VTso 2022-01-07 14:30 83.3 80.20 0.00 6.60 ENE
Lyon 2022-01-07 14:30 89.5 60.08 0.00 3.13 SSW
Macon VTcr 2022-01-07 14:15 89.4 63.66 0.00 4.03 SE
Mantee VT 2022-01-07 14:30 93.2 65.75 0.00 0.78 N
Minter City VTcn 2022-01-07 14:30 90.1 56.85 0.00 1.05 SE
Money 2022-01-07 14:30 90.1 65.61 0.00 2.20 SSW
Mound Bayou 2022-01-07 14:30 86.6 65.26 0.00 2.10 W
MSU North Farm Starkv 2022-01-07 14:15 88.7 51.27 0.00 6.09 SE
Natchez 2022-01-07 14:30 73.5 97.70 1.04 1.83 NE
Olive Branch2 VTso 2022-01-07 14:30 92.6 56.82 0.00
Onward VT 2022-01-07 14:30 92.6 58.97 0.00
Pontotoc AWS COOP 2022-01-07 14:29
Pontotoc Exp Stn 2022-01-07 14:30 86.6 58.61 0.00 4.42 NE
Port Gibson 2022-01-07 14:30 81.2 88.10 0.14 4.43 NW
Prairie 2022-01-07 14:30 91.1 51.22 0.00 4.19 SSE
Senatobia 2022-01-07 14:30 88.9 68.31 0.00 1.77 NNW
Shurden Farm 2022-01-07 14:30 90.0 57.71 0.00 4.12 SSW
Sidon 2022-01-07 14:30 92.0 56.55 0.01 0.77 NW
Stoneville AWS 2022-01-07 14:30 83.2 80.70 0.00 6.71 SW
Stoneville F10 2022-01-07 14:30 82.6 0.59 0.00 11.28 SSE
Stoneville F17 VT 2022-01-07 14:30 83.1 82.50 0.00
Stoneville F7 VT 2022-01-07 14:30 84.4 77.77 0.00
Stoneville W 2022-01-07 14:30 84.9 76.45 0.00 8.44 SSE
Stoneville_F8 2022-01-07 14:30 81.8 79.15 0.00 7.95 SE
Stoneville_SW 2022-01-07 14:30 83.8 78.21 0.01 9.04 SE
Thighman 2022-01-07 14:30 89.1 60.92 0.00 2.41 W
Tippo VT 2022-01-07 14:30 92.5 56.23 0.00
Tribbett 2022-01-07 14:30 80.1 84.20 0.01 5.74 SSE
Tunica 2022-01-07 14:30 89.2 59.70 0.00 4.06 SSW
Verona 2022-01-07 14:30 86.1 65.15 0.00 2.90 SW
Verona VTso 2022-01-07 14:30 87.4 62.14 0.00
Vicksburg 2022-01-07 14:30 78.9 95.70 0.30 3.69 NNW
Back to Top